Airfield :
LOGIN :

Register | Disclaimer

   EN    FR    IT 

 










Legend :    VFR   Marginal VFR   IFR   Intensive IFR   Very Intensive IFR
Visi :
Ceiling :
>= 8 km
>= 3000ft
5 to 8 km
1000 to 3000 ft
1500m to 5 km
500 to 1000 ft
800 to 1500m
200 to 500 ft
< 800m
< 200 ft
Symbols :   Thunderstorms  Fog  Heavy snow  Heavy precipitations  Wind > 20 kt
SIGMETs :     Misc.  Thunderstorms  Icing  Turbulence  Mountain Waves  Volcanic Ashes






- Airport Elevation : 228 ft
- IATA code : OPO


LPPR - Porto Fr. Sa Carneiro

CURRENT METAR :
  • 291630Z 20014KT 9999 -RA SCT005 BKN007 OVC030 14/14 Q1022

EXPIRED METARs :
  • 291600Z 19012KT 9999 SCT004 BKN006 14/14 Q1022
  • 291530Z 19013KT 8000 BKN004 BKN006 14/14 Q1022
  • 291500Z 19014KT 6000 -RA OVC003 14/14 Q1022
  • 291430Z 19014KT 160V220 4000 -RA BR BKN002 OVC004 14/14 Q1022
  • 291400Z 19014KT 4000 -RADZ BR BKN002 OVC004 14/14 Q1022

TAF TAF LPPR
Valid from the 29 at 12:00 until the 30 at 12:00 UTC


291100Z 2912/3012 19015KT 6000 SCT003 BKN006
TEMPO 2912/2921 3000 -RADZ BR BKN002
BECMG 2921/2924 FEW012 BKN020
BECMG 3002/3004 5000 -RADZ BR SCT004 BKN008
TEMPO 3004/3012 3000 RADZ BR SCT002 BKN004
PROB40
TEMPO 3008/3012 18018G28KT 1500 +DZRA BR BKN002



MET'MAP, your aeronautical weather chart ! - Copyright ORBIFLY December 2007 - Disclaimer

ORBIFLY MET'MAP TEAM :

Programming & Development : Alexandra Zaïnal
Concept & original design : Baudouin d'Aumeries
Assistance for programming : Marc-Olivier Méhu
Technical & hardware support : Manuel Goepfert

Contact : metmap@orbifly.com




SOURCES & CREDITS :

   NOAA